Time;durP1;ratioP1;P1;durP2;ratioP2;P2;SDS_P1;SDS_P2;PMS_P1;PMS_P2;Temp;Humidity;BMP_temperature;BMP_pressure;BME280_temperature;BME280_humidity;BME280_pressure;Samples;Min_cycle;Max_cycle;Signal;HPM_P1;HPM_P2
2022/12/30 00:00:11;;;;;;;18.20;13.98;;;;;;;21.99;42.50;95693.34;4987732;28;20061;-64
2022/12/30 00:02:37;;;;;;;20.73;15.45;;;;;;;21.81;42.64;95654.91;4987033;28;20030;-66
2022/12/30 00:05:02;;;;;;;18.40;15.00;;;;;;;21.78;42.42;95661.31;4989650;28;20577;-63
2022/12/30 00:07:28;;;;;;;21.10;15.80;;;;;;;21.95;42.55;95676.50;4985950;28;20432;-64
2022/12/30 00:09:53;;;;;;;17.45;14.65;;;;;;;21.32;42.59;95586.53;4987445;28;20054;-64
2022/12/30 00:34:25;;;;;;;18.60;15.15;;;;;;;21.91;42.68;95701.69;4981479;28;20902;-64
2022/12/30 00:36:51;;;;;;;18.95;15.75;;;;;;;21.87;42.55;95707.34;4988496;28;20094;-64
2022/12/30 00:39:16;;;;;;;18.60;14.90;;;;;;;21.67;42.58;95676.75;4991571;28;20097;-63
2022/12/30 00:44:26;;;;;;;18.48;15.43;;;;;;;21.84;42.69;95704.81;4987623;28;20100;-64
2022/12/30 00:46:51;;;;;;;18.88;15.15;;;;;;;21.78;42.50;95687.72;4986101;28;20478;-63
2022/12/30 00:57:29;;;;;;;18.63;15.80;;;;;;;21.75;42.95;95694.88;4985339;28;20111;-64
2022/12/30 00:59:55;;;;;;;19.55;15.73;;;;;;;21.84;42.75;95702.09;4986656;28;20042;-63
2022/12/30 01:02:21;;;;;;;19.60;15.90;;;;;;;21.83;42.76;95700.63;4985221;28;20034;-64
2022/12/30 01:04:46;;;;;;;19.48;15.88;;;;;;;21.08;42.61;95588.78;4987760;28;20141;-66
2022/12/30 01:07:11;;;;;;;20.63;15.77;;;;;;;21.82;42.97;95707.28;4986488;28;20493;-65
2022/12/30 01:09:37;;;;;;;20.13;16.00;;;;;;;21.64;42.66;95683.16;4985902;28;20399;-64
2022/12/30 01:12:09;;;;;;;20.77;16.33;;;;;;;21.72;42.99;95684.97;4986405;28;20435;-62
2022/12/30 01:14:39;;;;;;;20.23;16.35;;;;;;;21.82;42.99;95710.00;4995731;28;20497;-63
2022/12/30 01:17:05;;;;;;;20.10;15.85;;;;;;;21.79;43.02;95710.97;4987350;28;20034;-64
2022/12/30 01:19:30;;;;;;;22.13;16.85;;;;;;;21.79;42.78;95705.53;4991968;28;20084;-65
2022/12/30 01:21:56;;;;;;;21.30;16.23;;;;;;;21.81;43.05;95713.94;4987079;28;20062;-62
2022/12/30 01:24:21;;;;;;;20.83;16.45;;;;;;;21.60;42.88;95666.34;4984431;28;21060;-64
2022/12/30 01:26:47;;;;;;;19.85;16.55;;;;;;;21.68;43.10;95675.53;4984182;28;20109;-64
2022/12/30 01:29:26;;;;;;;20.45;16.10;;;;;;;21.11;43.04;95593.25;5019391;28;20499;-64
2022/12/30 01:31:58;;;;;;;19.65;15.95;;;;;;;21.59;43.01;95659.41;4982710;28;20038;-65
2022/12/30 01:34:24;;;;;;;20.38;16.33;;;;;;;21.76;43.02;95690.19;4984692;28;20089;-64
2022/12/30 01:36:50;;;;;;;20.30;16.77;;;;;;;21.77;42.82;95686.25;4985662;28;20070;-64
2022/12/30 01:39:15;;;;;;;20.58;16.40;;;;;;;21.80;43.22;95690.72;5003732;28;20576;-63
2022/12/30 01:41:41;;;;;;;20.00;16.75;;;;;;;21.69;42.88;95666.19;4988384;28;20041;-64
2022/12/30 01:44:44;;;;;;;20.77;16.58;;;;;;;21.77;42.82;95672.66;4982569;28;20042;-64
2022/12/30 01:47:09;;;;;;;20.50;16.38;;;;;;;21.76;43.21;95690.19;4983732;28;20128;-63
2022/12/30 01:49:36;;;;;;;21.33;16.67;;;;;;;21.75;42.89;95683.25;4990266;28;20062;-63
2022/12/30 01:52:02;;;;;;;21.63;16.95;;;;;;;21.02;43.13;95574.41;5000681;28;20193;-63
2022/12/30 01:54:27;;;;;;;20.48;16.88;;;;;;;21.59;43.06;95664.84;4983514;28;20066;-66
2022/12/30 01:56:53;;;;;;;21.92;17.38;;;;;;;21.75;43.10;95684.00;4983725;28;20054;-65
2022/12/30 01:59:19;;;;;;;20.38;16.98;;;;;;;21.67;43.17;95693.06;4985723;28;20038;-64
2022/12/30 02:01:44;;;;;;;21.60;17.65;;;;;;;21.72;43.07;95678.78;5000497;28;20096;-66
2022/12/30 02:04:13;;;;;;;20.35;16.83;;;;;;;21.72;43.13;95681.50;4984149;28;20046;-64
2022/12/30 02:06:44;;;;;;;19.63;16.33;;;;;;;21.71;43.05;95677.31;4957055;28;20042;-64
2022/12/30 02:09:09;;;;;;;19.75;16.70;;;;;;;21.06;42.92;95577.66;4987685;28;20046;-63
2022/12/30 02:11:35;;;;;;;22.02;16.48;;;;;;;20.98;42.65;95563.03;4985312;28;20053;-64
2022/12/30 02:14:01;;;;;;;20.27;16.70;;;;;;;21.72;42.98;95665.19;4984376;28;20026;-64
2022/12/30 02:17:03;;;;;;;22.38;17.98;;;;;;;21.72;43.03;95679.53;4982938;28;20042;-64
2022/12/30 02:20:06;;;;;;;21.90;17.33;;;;;;;21.72;42.90;95678.78;4985158;28;20057;-64
2022/12/30 02:22:50;;;;;;;21.25;17.13;;;;;;;21.72;43.13;95678.78;4992694;28;20220;-65
2022/12/30 02:25:37;;;;;;;22.35;17.02;;;;;;;21.74;42.96;95676.34;4980119;28;20416;-64
2022/12/30 02:28:40;;;;;;;22.45;17.17;;;;;;;21.70;43.25;95671.13;4973137;28;20054;-64
2022/12/30 02:31:30;;;;;;;20.73;16.58;;;;;;;21.69;43.24;95679.75;4988803;28;20045;-65
2022/12/30 02:34:15;;;;;;;22.40;17.70;;;;;;;21.02;43.43;95579.84;4990268;28;20070;-64
2022/12/30 02:36:43;;;;;;;22.65;17.70;;;;;;;21.71;43.18;95671.88;4976495;28;20601;-67
2022/12/30 02:39:25;;;;;;;19.70;17.38;;;;;;;21.67;43.13;95672.09;4993222;28;20120;-64
2022/12/30 02:44:56;;;;;;;20.92;16.77;;;;;;;20.97;43.00;95571.66;4999850;28;20116;-65
2022/12/30 02:47:31;;;;;;;21.38;17.67;;;;;;;21.67;43.05;95663.19;5016980;28;20061;-62
2022/12/30 02:52:46;;;;;;;19.40;16.95;;;;;;;21.67;43.25;95665.91;4999719;28;20138;-64
2022/12/30 02:55:14;;;;;;;20.95;17.45;;;;;;;21.66;43.24;95659.00;5020137;28;20042;-65
2022/12/30 02:57:39;;;;;;;21.38;17.50;;;;;;;21.09;43.03;95579.44;5018428;28;20110;-64
2022/12/30 03:06:12;;;;;;;23.08;18.40;;;;;;;21.03;42.96;95575.91;4985400;28;20565;-65
2022/12/30 03:08:49;;;;;;;21.08;17.73;;;;;;;21.65;43.30;95668.34;4985311;28;20022;-64
2022/12/30 03:11:18;;;;;;;20.13;17.05;;;;;;;21.38;43.43;95655.25;4974505;28;20406;-64
2022/12/30 03:14:24;;;;;;;22.63;18.98;;;;;;;21.64;43.27;95678.50;4954620;28;20050;-63
2022/12/30 03:17:01;;;;;;;21.25;17.15;;;;;;;21.51;43.12;95658.38;4984201;28;20124;-64
2022/12/30 03:19:28;;;;;;;22.48;17.83;;;;;;;21.62;43.41;95680.19;4967275;28;20148;-64
2022/12/30 03:21:54;;;;;;;22.95;18.75;;;;;;;21.49;43.19;95656.13;4967661;28;20092;-64
2022/12/30 03:27:07;;;;;;;23.17;18.55;;;;;;;21.59;43.35;95673.00;5014518;28;20108;-63
2022/12/30 03:29:35;;;;;;;22.83;18.08;;;;;;;21.46;43.38;95659.81;5019923;28;20169;-63
2022/12/30 03:32:00;;;;;;;22.13;18.00;;;;;;;21.55;43.24;95670.50;4988333;28;20494;-63
2022/12/30 03:34:26;;;;;;;22.23;18.30;;;;;;;21.50;43.38;95662.28;4987180;28;20050;-63
2022/12/30 03:36:54;;;;;;;21.38;18.17;;;;;;;19.79;43.26;95409.84;4989005;28;20061;-63
2022/12/30 03:39:23;;;;;;;23.10;18.40;;;;;;;21.45;43.26;95665.69;4996483;28;20057;-65
2022/12/30 03:41:49;;;;;;;20.05;17.27;;;;;;;21.46;43.35;95667.97;4988406;28;20494;-65
2022/12/30 03:44:16;;;;;;;21.65;18.05;;;;;;;21.50;43.16;95673.16;4987301;28;20026;-65
2022/12/30 03:46:42;;;;;;;23.13;18.48;;;;;;;21.49;43.36;95666.22;4988485;28;20042;-65
2022/12/30 03:49:07;;;;;;;24.17;18.33;;;;;;;21.54;43.35;95692.72;4975787;28;20050;-65
2022/12/30 03:51:33;;;;;;;22.63;18.33;;;;;;;21.56;43.45;95687.53;4988395;28;20716;-63
2022/12/30 03:53:58;;;;;;;22.80;18.75;;;;;;;21.48;43.07;95691.94;4987971;28;20440;-68
2022/12/30 03:56:24;;;;;;;21.27;17.92;;;;;;;21.55;43.27;95686.03;4971374;28;20495;-64
2022/12/30 03:58:49;;;;;;;22.85;18.30;;;;;;;21.54;42.91;95690.00;4969559;28;20106;-66
2022/12/30 04:01:14;;;;;;;23.02;18.70;;;;;;;20.87;43.25;95589.31;4986448;28;20062;-66
2022/12/30 04:03:40;;;;;;;24.52;18.40;;;;;;;21.53;43.42;95677.63;5017721;28;20069;-64
2022/12/30 04:06:06;;;;;;;23.52;18.10;;;;;;;21.54;43.27;95695.44;4990207;28;20046;-65
2022/12/30 04:08:31;;;;;;;23.42;18.70;;;;;;;21.40;43.30;95685.38;4988474;28;20499;-66
2022/12/30 04:10:57;;;;;;;23.17;18.15;;;;;;;21.55;43.26;95696.91;4986073;28;20050;-63
2022/12/30 04:13:22;;;;;;;22.48;18.60;;;;;;;21.46;43.31;95694.34;4985771;28;20046;-65
2022/12/30 04:15:49;;;;;;;23.13;18.38;;;;;;;21.39;43.41;95689.34;4987003;28;20057;-62
2022/12/30 04:18:14;;;;;;;22.75;18.38;;;;;;;21.51;43.35;95701.84;5016543;28;20060;-63
2022/12/30 04:20:40;;;;;;;22.13;18.88;;;;;;;21.50;43.51;95711.22;4988823;28;20515;-64
2022/12/30 04:23:05;;;;;;;22.58;18.15;;;;;;;21.50;43.47;95722.06;4986836;28;20511;-64
2022/12/30 04:25:31;;;;;;;22.23;18.83;;;;;;;21.47;43.66;95702.03;5018341;28;20046;-65
2022/12/30 04:27:56;;;;;;;23.00;18.45;;;;;;;21.32;43.61;95694.47;4985854;28;20123;-64
2022/12/30 04:30:21;;;;;;;22.48;18.20;;;;;;;21.36;43.46;95693.03;4990894;28;20081;-65
2022/12/30 04:32:47;;;;;;;21.83;18.25;;;;;;;21.48;43.36;95719.09;4985615;28;20026;-67
2022/12/30 04:35:12;;;;;;;23.90;18.73;;;;;;;21.40;43.27;95696.25;4986811;28;20031;-65
2022/12/30 04:37:38;;;;;;;24.20;19.63;;;;;;;21.16;43.43;95676.75;5000912;28;20073;-64
2022/12/30 04:40:04;;;;;;;22.55;18.58;;;;;;;21.47;43.72;95733.91;4987065;28;20054;-65
2022/12/30 04:42:29;;;;;;;24.23;19.48;;;;;;;21.32;43.58;95692.47;4986332;28;20038;-64
2022/12/30 04:44:54;;;;;;;22.58;18.67;;;;;;;21.31;43.50;95696.41;4988796;28;20049;-65
2022/12/30 04:47:20;;;;;;;23.55;18.38;;;;;;;21.47;43.10;95723.03;4987045;28;20045;-63
2022/12/30 04:49:45;;;;;;;24.02;19.02;;;;;;;21.40;43.38;95704.41;4987637;28;20050;-64
2022/12/30 04:52:11;;;;;;;23.73;19.55;;;;;;;21.45;43.51;95720.03;4987730;28;20057;-64
2022/12/30 04:54:36;;;;;;;23.75;18.90;;;;;;;21.45;43.27;95720.03;4985503;28;20438;-64
2022/12/30 04:57:01;;;;;;;23.95;18.63;;;;;;;21.45;43.65;95725.47;4982730;28;20526;-64
2022/12/30 04:59:27;;;;;;;23.67;19.05;;;;;;;21.39;43.54;95708.38;4986319;28;20071;-65
2022/12/30 05:01:53;;;;;;;22.05;18.92;;;;;;;20.74;43.24;95623.47;4986797;28;20030;-64
2022/12/30 05:04:18;;;;;;;22.95;19.02;;;;;;;21.30;43.33;95708.50;5018378;28;20058;-65
2022/12/30 05:06:44;;;;;;;23.65;19.35;;;;;;;21.44;43.64;95734.84;4986569;28;20078;-64
2022/12/30 05:09:09;;;;;;;24.48;19.23;;;;;;;21.43;43.59;95738.75;4992081;28;20046;-65
2022/12/30 05:11:34;;;;;;;24.23;19.00;;;;;;;21.43;43.60;95730.63;4978604;28;20030;-64
2022/12/30 05:14:00;;;;;;;22.23;17.85;;;;;;;21.42;43.57;95742.72;4985935;28;20037;-65
2022/12/30 05:16:25;;;;;;;21.55;18.08;;;;;;;21.42;43.62;95736.53;4986165;28;20054;-64
2022/12/30 05:18:51;;;;;;;25.90;19.65;;;;;;;21.00;43.38;95701.75;4989156;28;20068;-64
2022/12/30 05:21:16;;;;;;;22.48;18.75;;;;;;;21.23;43.49;95714.34;4991674;28;20630;-64
2022/12/30 05:26:25;;;;;;;23.13;19.27;;;;;;;21.40;43.49;95750.59;4987034;28;20160;-66
2022/12/30 05:28:51;;;;;;;24.70;19.08;;;;;;;21.32;43.51;95727.78;4987999;28;20038;-64
2022/12/30 05:31:17;;;;;;;22.20;18.65;;;;;;;21.39;43.39;95743.69;4993941;28;20108;-62
2022/12/30 05:33:42;;;;;;;23.58;18.95;;;;;;;21.26;43.64;95735.13;4981747;28;20043;-66
2022/12/30 05:36:08;;;;;;;22.92;18.85;;;;;;;21.38;43.91;95758.47;4978548;28;20058;-64
2022/12/30 05:38:34;;;;;;;23.15;18.73;;;;;;;20.89;43.57;95686.56;4984618;28;20034;-65
2022/12/30 05:40:59;;;;;;;21.80;18.45;;;;;;;21.36;43.64;95754.75;4988055;28;20641;-63
2022/12/30 05:43:25;;;;;;;23.45;19.42;;;;;;;21.37;43.74;95756.97;5020698;28;20038;-64
2022/12/30 05:45:50;;;;;;;23.30;18.95;;;;;;;21.35;43.46;95785.88;4989851;28;20046;-65
2022/12/30 05:48:16;;;;;;;23.58;18.98;;;;;;;20.82;43.68;95689.69;5018381;28;20602;-65
2022/12/30 05:50:42;;;;;;;23.13;18.95;;;;;;;21.35;43.64;95766.84;4987883;28;20065;-63
2022/12/30 05:53:08;;;;;;;23.83;18.60;;;;;;;21.34;43.50;95763.38;4986825;28;20112;-64
2022/12/30 05:55:33;;;;;;;21.73;18.00;;;;;;;21.35;43.55;95770.31;4984384;28;20460;-63
2022/12/30 05:57:58;;;;;;;22.27;18.20;;;;;;;21.14;43.33;95741.66;4983944;28;20477;-64
2022/12/30 06:00:24;;;;;;;24.45;18.98;;;;;;;21.33;43.56;95767.31;4964749;28;20686;-64
2022/12/30 06:02:49;;;;;;;23.73;18.58;;;;;;;21.40;43.33;95772.31;4963338;28;20574;-63
2022/12/30 06:05:15;;;;;;;23.05;18.90;;;;;;;21.47;43.36;95758.34;4982546;28;20030;-64
2022/12/30 06:07:40;;;;;;;24.80;18.63;;;;;;;21.91;42.71;95794.13;4984315;28;20113;-63
2022/12/30 06:10:07;;;;;;;24.17;18.73;;;;;;;22.14;41.75;95763.94;4985112;28;20514;-64
2022/12/30 06:12:32;;;;;;;24.80;20.05;;;;;;;21.09;41.38;95584.84;4985269;28;20088;-65
2022/12/30 06:14:58;;;;;;;22.38;18.85;;;;;;;22.41;41.39;95771.59;4985154;28;20042;-66
2022/12/30 06:17:23;;;;;;;23.48;18.98;;;;;;;22.46;41.22;95768.88;4984857;28;20554;-65
2022/12/30 06:19:49;;;;;;;23.23;18.90;;;;;;;22.43;41.25;95753.53;4984037;28;20479;-65
2022/12/30 06:22:14;;;;;;;22.33;18.52;;;;;;;22.53;40.78;95752.13;4985107;28;20536;-64
2022/12/30 06:24:40;;;;;;;21.23;18.40;;;;;;;22.13;41.04;95692.44;4981020;28;20529;-64
2022/12/30 06:27:05;;;;;;;22.85;18.30;;;;;;;22.76;41.17;95770.06;4982789;28;20055;-64
2022/12/30 06:29:31;;;;;;;22.80;18.58;;;;;;;22.64;40.89;95746.72;5016027;28;20038;-64
2022/12/30 06:31:56;;;;;;;23.98;18.45;;;;;;;22.59;40.35;95731.13;4985008;28;20057;-66
2022/12/30 06:34:21;;;;;;;21.13;18.30;;;;;;;22.40;40.53;95727.28;4985510;28;20046;-65
2022/12/30 06:36:47;;;;;;;21.77;18.00;;;;;;;22.84;40.29;95771.09;5018207;28;20117;-67
2022/12/30 06:39:12;;;;;;;23.17;18.55;;;;;;;22.96;41.02;95779.63;4984763;28;20054;-65
2022/12/30 06:41:38;;;;;;;22.10;18.60;;;;;;;22.28;40.84;95679.47;5015712;28;20591;-64
2022/12/30 06:44:03;;;;;;;23.35;18.60;;;;;;;23.05;40.33;95782.13;5000386;28;20030;-65
2022/12/30 06:46:29;;;;;;;21.75;18.05;;;;;;;23.09;40.45;95788.13;4985508;28;20521;-63
2022/12/30 06:48:54;;;;;;;22.73;18.23;;;;;;;23.15;40.41;95786.16;4982759;28;20062;-65
2022/12/30 06:51:19;;;;;;;22.27;17.80;;;;;;;23.08;40.26;95764.09;4981869;28;20155;-65
2022/12/30 06:53:45;;;;;;;21.85;18.50;;;;;;;23.21;40.30;95786.91;4983599;28;20026;-66
2022/12/30 06:56:10;;;;;;;23.00;19.17;;;;;;;23.06;39.95;95761.84;4984740;28;20832;-65
2022/12/30 06:58:36;;;;;;;22.40;18.10;;;;;;;23.03;40.16;95760.09;5014082;28;20050;-64
2022/12/30 07:01:02;;;;;;;21.30;18.58;;;;;;;23.30;39.84;95794.88;4982414;28;20054;-65
2022/12/30 07:03:27;;;;;;;21.42;17.73;;;;;;;23.29;40.05;95812.47;4982584;28;20430;-64
2022/12/30 07:05:52;;;;;;;21.02;17.73;;;;;;;23.37;39.89;95801.84;4982257;28;20495;-64
2022/12/30 07:08:18;;;;;;;21.92;17.73;;;;;;;23.32;39.98;95800.59;4983679;28;20038;-65
2022/12/30 07:10:43;;;;;;;19.75;17.35;;;;;;;23.40;40.00;95801.59;4983393;28;20418;-66
2022/12/30 07:13:11;;;;;;;21.85;18.08;;;;;;;23.36;40.18;95795.63;4983790;28;20050;-66
2022/12/30 07:15:36;;;;;;;21.33;17.80;;;;;;;23.35;39.86;95788.72;4963119;28;20157;-64
2022/12/30 07:18:02;;;;;;;21.50;18.08;;;;;;;23.47;40.01;95806.59;4981236;28;20447;-63
2022/12/30 07:20:27;;;;;;;21.08;17.42;;;;;;;23.38;40.04;95798.63;4984224;28;20459;-64
2022/12/30 07:22:52;;;;;;;20.40;17.15;;;;;;;23.41;40.03;95803.84;4982789;28;20430;-65
2022/12/30 07:25:18;;;;;;;19.92;16.85;;;;;;;23.48;40.38;95808.06;4983829;28;20164;-65
2022/12/30 07:27:43;;;;;;;22.95;18.27;;;;;;;23.47;40.31;95801.16;4982267;28;20100;-64
2022/12/30 07:30:09;;;;;;;21.60;17.67;;;;;;;22.76;39.85;95699.28;4983281;28;20069;-64
2022/12/30 07:32:34;;;;;;;22.80;17.55;;;;;;;23.55;40.50;95813.78;4979955;28;20099;-64
2022/12/30 07:35:01;;;;;;;23.48;18.13;;;;;;;23.16;39.98;95749.47;4984417;28;20041;-64
2022/12/30 07:37:26;;;;;;;19.63;16.45;;;;;;;23.57;40.23;95821.47;4980210;28;20042;-65
2022/12/30 07:39:52;;;;;;;20.60;17.50;;;;;;;23.16;40.17;95744.03;4983651;28;20062;-65
2022/12/30 07:42:17;;;;;;;22.58;17.75;;;;;;;23.65;40.23;95812.38;4984462;28;20543;-65
2022/12/30 07:44:43;;;;;;;21.25;16.45;;;;;;;23.66;39.89;95813.13;4983088;28;20470;-65
2022/12/30 07:47:08;;;;;;;19.88;16.33;;;;;;;23.61;40.21;95805.66;4982775;28;20498;-63
2022/12/30 07:49:34;;;;;;;19.58;16.30;;;;;;;23.16;40.40;95744.03;4981861;28;20054;-63
2022/12/30 07:51:59;;;;;;;22.20;17.08;;;;;;;23.59;40.33;95829.94;4983978;28;20054;-63
2022/12/30 07:54:24;;;;;;;20.25;16.85;;;;;;;23.57;40.44;95822.25;4983990;28;20049;-64
2022/12/30 07:56:50;;;;;;;18.85;16.85;;;;;;;23.58;40.47;95817.53;4983082;28;20034;-63
2022/12/30 07:59:15;;;;;;;19.55;16.50;;;;;;;23.55;40.84;95818.50;4985537;28;20042;-65
2022/12/30 08:01:41;;;;;;;19.77;16.35;;;;;;;23.66;40.23;95824.78;4985891;28;20050;-64
2022/12/30 08:04:06;;;;;;;20.10;16.95;;;;;;;23.69;40.19;95823.81;4983947;28;20058;-63
2022/12/30 08:06:32;;;;;;;18.08;15.55;;;;;;;23.73;40.01;95815.38;4986083;28;20039;-63
2022/12/30 08:09:02;;;;;;;19.88;16.23;;;;;;;23.20;40.17;95744.56;4985722;28;20043;-64
2022/12/30 08:11:27;;;;;;;19.80;16.10;;;;;;;23.55;40.09;95802.88;4978612;28;20037;-67
2022/12/30 08:13:53;;;;;;;19.35;16.35;;;;;;;23.51;40.10;95790.72;4987861;28;20034;-63
2022/12/30 08:16:19;;;;;;;19.38;16.23;;;;;;;23.08;40.20;95747.75;4986387;28;20560;-66
2022/12/30 08:18:44;;;;;;;20.95;17.02;;;;;;;23.57;40.15;95805.88;4987459;28;20038;-64
2022/12/30 08:21:14;;;;;;;20.08;16.33;;;;;;;23.62;40.42;95807.16;4987624;28;20042;-65
2022/12/30 08:23:41;;;;;;;19.42;16.20;;;;;;;23.65;40.52;95811.66;5017911;28;20034;-65
2022/12/30 08:26:09;;;;;;;19.38;16.50;;;;;;;23.67;39.91;95811.88;4985966;28;20430;-64
2022/12/30 08:28:34;;;;;;;18.42;16.00;;;;;;;23.07;40.09;95727.91;4983504;28;20051;-64
2022/12/30 08:31:05;;;;;;;19.33;16.27;;;;;;;23.67;40.25;95814.63;5017310;28;20572;-65
2022/12/30 08:33:30;;;;;;;18.95;16.83;;;;;;;23.64;40.38;95799.25;4986680;28;20053;-65
2022/12/30 08:36:00;;;;;;;20.23;16.98;;;;;;;23.49;40.23;95785.03;4984032;28;20046;-63
2022/12/30 08:38:26;;;;;;;20.30;17.08;;;;;;;23.51;40.62;95813.31;4985276;28;20042;-62
2022/12/30 08:40:51;;;;;;;18.40;15.88;;;;;;;23.37;40.62;95808.03;5019877;28;20186;-64
2022/12/30 08:43:18;;;;;;;18.80;15.98;;;;;;;23.44;40.47;95810.31;4986370;28;20430;-64
2022/12/30 08:45:44;;;;;;;19.90;16.50;;;;;;;23.01;40.54;95721.69;4987370;28;20497;-62
2022/12/30 08:48:09;;;;;;;19.67;16.65;;;;;;;22.99;40.22;95710.53;4988536;28;20042;-63
2022/12/30 08:50:35;;;;;;;19.73;16.70;;;;;;;23.80;40.14;95823.09;4989556;28;20621;-69
2022/12/30 08:53:00;;;;;;;19.52;16.00;;;;;;;23.96;39.49;95815.69;4986128;28;20027;-64
2022/12/30 08:55:27;;;;;;;20.48;17.08;;;;;;;24.04;39.43;95811.22;4982426;28;20047;-67
2022/12/30 08:57:52;;;;;;;19.83;16.35;;;;;;;23.99;39.87;95806.50;4986724;28;20105;-64
2022/12/30 09:00:18;;;;;;;18.23;15.68;;;;;;;24.16;39.13;95812.72;4987682;28;20046;-63
2022/12/30 09:02:43;;;;;;;19.70;16.83;;;;;;;24.16;39.69;95807.25;4986349;28;20037;-64
2022/12/30 09:05:09;;;;;;;19.23;16.27;;;;;;;24.02;39.39;95808.25;4985325;28;20733;-63
2022/12/30 09:07:34;;;;;;;20.92;17.10;;;;;;;24.15;39.61;95805.75;5000386;28;20042;-61
2022/12/30 09:10:00;;;;;;;20.08;17.40;;;;;;;24.06;39.60;95806.00;4980683;28;20105;-63
2022/12/30 09:12:25;;;;;;;19.02;16.42;;;;;;;24.08;39.49;95798.09;4985482;28;20134;-63
2022/12/30 09:14:50;;;;;;;20.63;17.58;;;;;;;24.21;39.32;95806.50;5001955;28;20033;-64
2022/12/30 09:17:16;;;;;;;19.60;16.95;;;;;;;23.36;39.26;95670.25;4986966;28;20041;-64
2022/12/30 09:19:42;;;;;;;22.50;16.50;;;;;;;24.43;39.10;95798.38;4988013;28;20056;-65
2022/12/30 09:22:07;;;;;;;18.70;16.40;;;;;;;24.52;38.63;95806.31;5002673;28;20085;-64
2022/12/30 09:24:32;;;;;;;20.40;16.42;;;;;;;24.58;38.62;95793.41;4984974;28;20511;-63
2022/12/30 09:26:58;;;;;;;21.13;16.42;;;;;;;24.50;38.85;95776.03;4982395;28;20057;-61
2022/12/30 09:29:23;;;;;;;20.40;16.27;;;;;;;24.64;38.65;95796.88;4991370;28;20057;-65
2022/12/30 09:31:49;;;;;;;21.05;17.15;;;;;;;24.65;38.73;95795.59;4987127;28;20050;-63
2022/12/30 09:34:15;;;;;;;20.25;16.70;;;;;;;24.63;38.83;95803.56;4986254;28;20038;-63
2022/12/30 09:36:40;;;;;;;26.33;20.67;;;;;;;23.71;37.66;95727.88;4984600;28;20077;-63
2022/12/30 09:39:06;;;;;;;22.52;18.45;;;;;;;24.36;37.98;95771.56;4983194;28;20113;-63
2022/12/30 09:44:52;;;;;;;20.50;17.33;;;;;;;24.72;37.99;95778.72;4982316;28;20068;-63
2022/12/30 09:47:28;;;;;;;22.25;17.00;;;;;;;24.75;38.09;95781.19;5010222;28;20054;-63
2022/12/30 09:50:06;;;;;;;20.17;16.52;;;;;;;24.45;37.87;95709.28;5013967;28;20470;-64
2022/12/30 09:52:56;;;;;;;19.83;16.17;;;;;;;24.93;37.43;95759.56;5014044;28;20120;-64
2022/12/30 09:55:25;;;;;;;19.33;16.70;;;;;;;24.95;37.86;95767.97;4980263;28;20050;-66
2022/12/30 09:57:58;;;;;;;19.92;17.00;;;;;;;24.82;37.83;95737.72;4983301;28;20159;-65
2022/12/30 10:00:24;;;;;;;21.23;16.90;;;;;;;24.86;37.98;95727.28;4991745;28;20644;-64
2022/12/30 10:03:06;;;;;;;21.33;16.70;;;;;;;24.60;37.48;95684.38;5015701;28;20033;-65
2022/12/30 10:05:50;;;;;;;19.48;16.50;;;;;;;24.91;38.37;95742.16;4985548;28;20132;-64
2022/12/30 10:08:41;;;;;;;20.23;16.88;;;;;;;25.15;37.96;95743.09;4973749;28;20054;-64
2022/12/30 10:11:26;;;;;;;19.33;17.15;;;;;;;25.05;38.79;95739.16;4995253;28;20054;-63
2022/12/30 10:14:04;;;;;;;21.73;18.60;;;;;;;25.24;38.41;95748.28;4968970;28;20093;-63
2022/12/30 10:16:41;;;;;;;22.30;18.58;;;;;;;25.45;38.13;95758.34;4981987;28;20061;-65
2022/12/30 10:19:19;;;;;;;22.55;19.90;;;;;;;25.42;38.47;95740.22;4972570;28;20144;-65
2022/12/30 10:22:09;;;;;;;24.55;19.35;;;;;;;25.44;38.32;95742.44;4982833;28;20438;-63
2022/12/30 10:24:34;;;;;;;;;;;;;;;25.39;38.07;95735.03;4986968;28;20408;-63
2022/12/30 10:27:02;;;;;;;21.17;18.87;;;;;;;25.50;38.00;95724.03;4983237;28;19979;-63
2022/12/30 10:29:30;;;;;;;21.27;18.98;;;;;;;25.21;37.81;95689.13;4982589;28;20205;-63
2022/12/30 10:31:56;;;;;;;21.90;19.25;;;;;;;25.68;37.61;95723.44;4967234;28;20050;-63
2022/12/30 10:34:28;;;;;;;23.35;19.23;;;;;;;25.57;37.56;95718.75;4984118;28;20133;-65
2022/12/30 10:37:01;;;;;;;22.50;19.23;;;;;;;25.74;37.32;95715.94;4982765;28;20133;-65
2022/12/30 10:39:32;;;;;;;23.65;19.20;;;;;;;25.45;37.60;95692.00;4984661;28;20054;-66
2022/12/30 10:42:22;;;;;;;21.50;18.98;;;;;;;25.57;37.73;95701.63;4998889;28;20664;-63
2022/12/30 10:44:56;;;;;;;20.00;17.75;;;;;;;25.43;38.01;95703.44;4982345;28;20502;-67
2022/12/30 10:47:40;;;;;;;21.00;17.42;;;;;;;25.50;37.92;95697.44;4984189;28;20027;-67
2022/12/30 10:50:29;;;;;;;22.13;17.83;;;;;;;25.56;37.75;95691.91;4986511;28;20054;-64
2022/12/30 10:52:54;;;;;;;20.55;17.75;;;;;;;25.26;37.96;95671.97;4983669;28;20439;-66
2022/12/30 10:55:27;;;;;;;20.67;17.52;;;;;;;25.37;38.03;95683.56;4981537;28;20084;-65
2022/12/30 10:57:57;;;;;;;20.73;17.73;;;;;;;25.37;37.91;95674.66;4983754;28;20069;-64
2022/12/30 11:00:22;;;;;;;21.40;17.75;;;;;;;25.39;38.04;95663.94;4983470;28;20062;-64
2022/12/30 11:02:56;;;;;;;20.17;17.00;;;;;;;25.63;37.61;95669.50;4984446;28;20454;-64
2022/12/30 11:05:35;;;;;;;20.17;16.80;;;;;;;25.65;37.68;95669.75;4984882;28;20081;-63
2022/12/30 11:08:04;;;;;;;20.03;17.00;;;;;;;25.69;37.58;95670.22;4984494;28;20073;-63
2022/12/30 11:10:29;;;;;;;19.95;16.35;;;;;;;25.59;38.04;95647.13;5015562;28;20395;-72
2022/12/30 11:15:57;;;;;;;19.85;16.23;;;;;;;25.68;37.59;95636.66;5004012;28;20263;-61
2022/12/30 11:18:26;;;;;;;18.08;16.17;;;;;;;25.35;37.35;95586.88;5015845;28;20503;-61
2022/12/30 11:20:53;;;;;;;19.83;16.42;;;;;;;25.26;37.54;95595.44;4985664;28;20120;-61
2022/12/30 11:23:31;;;;;;;19.00;16.40;;;;;;;24.54;37.36;95476.13;4965724;28;20129;-60
2022/12/30 11:25:57;;;;;;;19.38;16.33;;;;;;;25.69;37.60;95642.88;4979871;28;20046;-61
2022/12/30 11:28:35;;;;;;;18.65;16.27;;;;;;;25.81;37.27;95656.69;4998287;28;20046;-62
2022/12/30 11:31:02;;;;;;;19.67;15.93;;;;;;;25.77;37.53;95660.22;4989620;28;20651;-58
2022/12/30 11:33:45;;;;;;;18.95;15.98;;;;;;;25.91;37.38;95655.13;4982378;28;20105;-60
2022/12/30 11:36:11;;;;;;;19.52;16.33;;;;;;;26.05;37.21;95654.00;4994794;28;20084;-58
2022/12/30 11:38:38;;;;;;;29.48;23.13;;;;;;;25.59;32.11;95655.34;4986418;28;20042;-59
2022/12/30 11:41:18;;;;;;;21.25;16.48;;;;;;;25.52;37.04;95667.56;4993959;28;20034;-60
2022/12/30 11:43:44;;;;;;;19.60;16.67;;;;;;;25.43;37.75;95659.69;4985155;28;20042;-58
2022/12/30 11:46:30;;;;;;;19.38;15.95;;;;;;;25.23;38.08;95656.59;4985780;28;20499;-60
2022/12/30 11:48:57;;;;;;;20.65;16.42;;;;;;;25.01;38.56;95629.38;4966380;28;20054;-59
2022/12/30 11:51:31;;;;;;;18.50;15.80;;;;;;;25.31;38.21;95646.59;4990021;28;20046;-60
2022/12/30 11:54:06;;;;;;;19.45;16.20;;;;;;;25.42;38.12;95649.25;4990883;28;20042;-59
2022/12/30 11:56:32;;;;;;;19.33;15.95;;;;;;;25.43;38.56;95646.00;4989966;28;20046;-60
2022/12/30 11:58:59;;;;;;;19.33;16.05;;;;;;;25.35;38.52;95652.50;5020938;28;20045;-60
2022/12/30 12:01:25;;;;;;;21.05;16.25;;;;;;;25.35;38.22;95649.78;5001952;28;20046;-60
2022/12/30 12:03:57;;;;;;;26.58;21.73;;;;;;;25.56;32.65;95650.88;4986449;28;20050;-60
2022/12/30 12:06:23;;;;;;;27.45;22.23;;;;;;;25.69;32.10;95642.88;4987643;28;20157;-60
2022/12/30 12:09:03;;;;;;;29.00;23.60;;;;;;;25.77;31.17;95649.25;4985757;28;21387;-59
2022/12/30 12:11:31;;;;;;;28.17;22.58;;;;;;;25.81;31.10;95645.75;4987330;28;20076;-59
2022/12/30 12:14:22;;;;;;;26.80;22.45;;;;;;;25.14;30.89;95544.81;4956251;28;20262;-60
2022/12/30 12:16:50;;;;;;;31.42;22.90;;;;;;;25.77;30.51;95643.78;4985409;28;20074;-59
2022/12/30 12:19:25;;;;;;;25.95;22.83;;;;;;;25.30;30.94;95615.03;4987083;28;20588;-60